createdAt,value
2023-03-27T00:02:04.854Z,97518.72
2023-03-27T00:04:31.478Z,97522.06
2023-03-27T00:06:59.438Z,97524.97
2023-03-27T00:09:27.261Z,97523.97
2023-03-27T00:11:56.230Z,97538.44
2023-03-27T00:14:23.864Z,97540.56
2023-03-27T00:16:51.002Z,97543.22
2023-03-27T00:19:18.790Z,97545.59
2023-03-27T00:21:45.307Z,97559.03
2023-03-27T00:24:11.819Z,97561.97
2023-03-27T00:26:40.577Z,97557.13
2023-03-27T00:29:07.751Z,97549.16
2023-03-27T00:31:34.576Z,97570.03
2023-03-27T00:34:01.802Z,97575.28
2023-03-27T00:36:28.339Z,97572.06
2023-03-27T00:38:54.841Z,97575.00
2023-03-27T00:41:21.411Z,97578.53
2023-03-27T00:43:48.604Z,97580.28
2023-03-27T00:46:14.951Z,97584.31
2023-03-27T00:48:41.876Z,97584.94
2023-03-27T00:51:08.353Z,97588.47
2023-03-27T00:53:34.817Z,97588.59
2023-03-27T00:56:03.353Z,97597.38
2023-03-27T00:58:32.278Z,97602.44
2023-03-27T01:00:59.501Z,97606.47
2023-03-27T01:03:29.733Z,97605.16
2023-03-27T01:05:56.290Z,97616.72
2023-03-27T01:08:22.844Z,97612.56
2023-03-27T01:10:51.940Z,97613.47
2023-03-27T01:13:47.077Z,97620.06
2023-03-27T01:16:22.738Z,97609.75
2023-03-27T01:19:00.872Z,97615.00
2023-03-27T01:22:10.444Z,97622.06
2023-03-27T01:24:47.744Z,97629.03
2023-03-27T01:27:58.522Z,97645.91
2023-03-27T01:30:36.673Z,97642.38
2023-03-27T01:33:36.682Z,97641.88
2023-03-27T01:36:30.516Z,97641.69
2023-03-27T01:39:18.752Z,97644.94
2023-03-27T01:41:52.994Z,97643.78
2023-03-27T01:44:44.883Z,97659.88
2023-03-27T01:47:42.512Z,97659.69
2023-03-27T01:50:17.321Z,97665.97
2023-03-27T01:52:47.427Z,97670.41
2023-03-27T01:55:15.792Z,97668.47
2023-03-27T01:57:49.315Z,97668.38
2023-03-27T02:00:21.874Z,97668.56
2023-03-27T02:02:52.443Z,97680.22
2023-03-27T02:05:29.733Z,97682.28
2023-03-27T02:08:12.087Z,97694.63
2023-03-27T02:10:41.606Z,97698.28
2023-03-27T02:13:12.266Z,97699.59
2023-03-27T02:15:40.645Z,97703.22
2023-03-27T02:18:10.078Z,97704.03
2023-03-27T02:20:37.628Z,97698.94
2023-03-27T02:23:04.614Z,97702.31
2023-03-27T02:25:39.646Z,97703.81
2023-03-27T02:28:30.802Z,97709.19
2023-03-27T02:31:06.037Z,97707.22
2023-03-27T02:34:14.170Z,97710.56
2023-03-27T02:37:02.144Z,97723.41
2023-03-27T02:39:48.865Z,97728.69
2023-03-27T02:42:19.718Z,97730.28
2023-03-27T02:44:55.047Z,97736.38
2023-03-27T02:48:01.988Z,97743.59
2023-03-27T02:50:31.780Z,97745.50
2023-03-27T02:53:00.142Z,97748.13
2023-03-27T02:55:33.250Z,97753.44
2023-03-27T02:58:02.254Z,97746.34
2023-03-27T03:00:30.150Z,97758.88
2023-03-27T03:03:27.854Z,97755.06
2023-03-27T03:05:55.195Z,97764.28
2023-03-27T03:08:21.768Z,97769.41
2023-03-27T03:10:48.316Z,97774.50
2023-03-27T03:13:15.470Z,97776.19
2023-03-27T03:15:41.933Z,97781.44
2023-03-27T03:18:09.318Z,97780.66
2023-03-27T03:20:36.367Z,97786.69
2023-03-27T03:23:02.924Z,97784.56
2023-03-27T03:25:31.231Z,97788.03
2023-03-27T03:28:00.334Z,97799.53
2023-03-27T03:30:30.376Z,97798.53
2023-03-27T03:32:56.897Z,97800.75
2023-03-27T03:35:24.647Z,97813.00
2023-03-27T03:37:51.644Z,97814.78
2023-03-27T03:40:19.060Z,97816.13
2023-03-27T03:42:50.363Z,97821.56
2023-03-27T03:45:17.197Z,97822.06
2023-03-27T03:47:44.035Z,97831.06
2023-03-27T03:50:10.874Z,97833.50
2023-03-27T03:52:37.374Z,97833.72
2023-03-27T03:55:04.608Z,97831.97
2023-03-27T03:57:31.152Z,97833.72
2023-03-27T03:59:58.395Z,97839.34
2023-03-27T04:02:29.001Z,97849.59
2023-03-27T04:04:56.735Z,97842.91
2023-03-27T04:07:23.505Z,97840.88
2023-03-27T04:09:50.669Z,97848.56
2023-03-27T04:12:17.662Z,97857.34
2023-03-27T04:14:44.575Z,97861.09
2023-03-27T04:17:11.434Z,97867.22
2023-03-27T04:19:37.928Z,97866.94
2023-03-27T04:22:05.625Z,97873.19
2023-03-27T04:24:32.083Z,97868.41
2023-03-27T04:27:01.092Z,97872.31
2023-03-27T04:29:30.497Z,97875.75
2023-03-27T04:31:57.468Z,97879.59
2023-03-27T04:34:24.319Z,97875.63
2023-03-27T04:36:51.145Z,97885.84
2023-03-27T04:39:18.310Z,97881.50
2023-03-27T04:41:50.749Z,97894.31
2023-03-27T04:44:17.581Z,97899.59
2023-03-27T04:46:44.913Z,97891.97
2023-03-27T04:49:11.643Z,97893.16
2023-03-27T04:51:38.513Z,97892.06
2023-03-27T04:54:05.100Z,97901.19
2023-03-27T04:56:33.758Z,97899.97
2023-03-27T04:59:01.352Z,97913.34
2023-03-27T05:01:28.666Z,97912.00
2023-03-27T05:03:56.290Z,97908.97
2023-03-27T05:06:23.205Z,97915.25
2023-03-27T05:08:50.175Z,97915.97
2023-03-27T05:11:16.673Z,97919.13
2023-03-27T05:13:43.433Z,97918.16
2023-03-27T05:16:10.164Z,97925.53
2023-03-27T05:18:38.388Z,97932.75
2023-03-27T05:21:08.348Z,97928.81
2023-03-27T05:23:34.822Z,97938.47
2023-03-27T05:26:01.288Z,97945.19
2023-03-27T05:28:28.400Z,97941.13
2023-03-27T05:30:55.206Z,97947.28
2023-03-27T05:33:21.912Z,97951.34
2023-03-27T05:35:52.544Z,97952.09
2023-03-27T05:38:19.660Z,97956.78
2023-03-27T05:40:46.125Z,97958.63
2023-03-27T05:43:12.627Z,97964.91
2023-03-27T05:45:39.079Z,97960.78
2023-03-27T05:48:05.755Z,97971.84
2023-03-27T05:50:34.506Z,97966.47
2023-03-27T05:53:02.539Z,97973.19
2023-03-27T05:55:29.040Z,97977.91
2023-03-27T05:57:55.575Z,97977.75
2023-03-27T06:00:25.751Z,97982.47
2023-03-27T06:02:56.418Z,97983.06
2023-03-27T06:05:23.072Z,97985.09
2023-03-27T06:07:50.690Z,97990.41
2023-03-27T06:10:26.787Z,97985.69
2023-03-27T06:13:06.432Z,97986.50
2023-03-27T06:15:33.304Z,97982.66
2023-03-27T06:17:59.846Z,97985.41
2023-03-27T06:20:26.632Z,97990.47
2023-03-27T06:22:55.629Z,97998.31
2023-03-27T06:25:22.821Z,98001.78
2023-03-27T06:27:49.757Z,98004.34
2023-03-27T06:30:18.029Z,98005.03
2023-03-27T06:32:52.180Z,98013.34
2023-03-27T06:35:18.981Z,98002.66
2023-03-27T06:37:48.824Z,98012.44
2023-03-27T06:40:27.579Z,98023.66
2023-03-27T06:42:55.974Z,98021.69
2023-03-27T06:45:27.409Z,98016.06
2023-03-27T06:48:13.626Z,98027.53
2023-03-27T06:50:47.032Z,98028.84
2023-03-27T06:53:26.702Z,98032.69
2023-03-27T06:55:54.797Z,98038.63
2023-03-27T06:58:21.785Z,98037.50
2023-03-27T07:00:49.616Z,98044.16
2023-03-27T07:03:16.533Z,98042.03
2023-03-27T07:05:43.111Z,98048.75
2023-03-27T07:10:44.631Z,98077.66
2023-03-27T07:13:12.145Z,98077.19
2023-03-27T07:15:38.695Z,98073.59
2023-03-27T07:18:06.477Z,98080.78
2023-03-27T07:20:33.611Z,98080.69
2023-03-27T07:23:00.578Z,98084.47
2023-03-27T07:25:28.323Z,98080.53
2023-03-27T07:27:59.464Z,98086.53
2023-03-27T07:30:25.979Z,98085.00
2023-03-27T07:32:52.587Z,98094.16
2023-03-27T07:35:19.733Z,98101.88
2023-03-27T07:37:46.665Z,98096.00
2023-03-27T07:40:29.381Z,98098.09
2023-03-27T07:42:56.265Z,98096.38
2023-03-27T07:45:24.032Z,98106.81
2023-03-27T07:47:50.615Z,98111.00
2023-03-27T07:50:20.301Z,98113.84
2023-03-27T07:52:47.078Z,98120.16
2023-03-27T07:55:14.738Z,98121.44
2023-03-27T07:57:57.197Z,98120.75
2023-03-27T08:00:27.785Z,98119.81
2023-03-27T08:02:54.596Z,98125.00
2023-03-27T08:05:21.284Z,98126.69
2023-03-27T08:07:48.459Z,98132.66
2023-03-27T08:10:16.030Z,98131.13
2023-03-27T08:12:42.744Z,98133.88
2023-03-27T08:15:09.492Z,98132.59
2023-03-27T08:17:36.248Z,98139.25
2023-03-27T08:20:06.855Z,98139.66
2023-03-27T08:22:33.357Z,98139.38
2023-03-27T08:24:59.809Z,98138.44
2023-03-27T08:27:26.269Z,98132.19
2023-03-27T08:29:53.106Z,98129.88
2023-03-27T08:32:19.571Z,98131.38
2023-03-27T08:34:46.175Z,98135.38
2023-03-27T08:37:13.234Z,98126.75
2023-03-27T08:39:39.708Z,98144.47
2023-03-27T08:42:08.231Z,98138.81
2023-03-27T08:44:34.792Z,98139.94
2023-03-27T08:47:11.676Z,98144.16
2023-03-27T08:49:41.155Z,98145.66
2023-03-27T08:52:22.589Z,98143.41
2023-03-27T08:54:58.214Z,98141.31
2023-03-27T08:57:28.191Z,98154.22
2023-03-27T08:59:59.650Z,98149.72
2023-03-27T09:02:38.711Z,98169.81
2023-03-27T09:05:09.332Z,98157.66
2023-03-27T09:08:08.158Z,98147.03
2023-03-27T09:10:45.859Z,98146.53
2023-03-27T09:13:16.869Z,98158.41
2023-03-27T09:15:55.487Z,98166.34
2023-03-27T09:18:27.397Z,98170.00
2023-03-27T09:20:56.344Z,98157.78
2023-03-27T09:23:40.474Z,98160.81
2023-03-27T09:26:14.776Z,98173.19
2023-03-27T09:28:50.728Z,98164.91
2023-03-27T09:31:46.026Z,98167.22
2023-03-27T09:34:18.775Z,98177.94
2023-03-27T09:36:45.305Z,98161.50
2023-03-27T09:39:15.340Z,98161.50
2023-03-27T09:41:44.465Z,98162.09
2023-03-27T09:44:25.229Z,98159.78
2023-03-27T09:46:58.080Z,98146.63
2023-03-27T09:49:25.348Z,98157.88
2023-03-27T09:52:00.064Z,98153.38
2023-03-27T09:54:28.937Z,98159.84
2023-03-27T09:57:03.354Z,98174.97
2023-03-27T09:59:33.752Z,98173.88
2023-03-27T10:02:09.407Z,98167.38
2023-03-27T10:04:36.616Z,98157.06
2023-03-27T10:07:06.911Z,98160.13
2023-03-27T10:09:35.022Z,98170.50
2023-03-27T10:12:07.900Z,98163.34
2023-03-27T10:14:38.024Z,98176.59
2023-03-27T10:17:05.200Z,98178.09
2023-03-27T10:19:37.055Z,98174.56
2023-03-27T10:22:14.413Z,98174.34
2023-03-27T10:24:44.456Z,98183.44
2023-03-27T10:27:18.851Z,98189.94
2023-03-27T10:29:45.336Z,98159.72
2023-03-27T10:32:11.869Z,98173.09
2023-03-27T10:34:55.278Z,98178.19
2023-03-27T10:37:26.547Z,98175.88
2023-03-27T10:39:55.127Z,98180.34
2023-03-27T10:42:22.810Z,98191.25
2023-03-27T10:44:49.371Z,98188.41
2023-03-27T10:47:18.505Z,98160.06
2023-03-27T10:49:48.347Z,98175.66
2023-03-27T10:52:27.987Z,98156.91
2023-03-27T10:55:16.467Z,98175.00
2023-03-27T10:57:42.929Z,98175.94
2023-03-27T11:00:32.519Z,98189.44
2023-03-27T11:03:31.061Z,98185.56
2023-03-27T11:05:57.555Z,98207.00
2023-03-27T11:08:31.281Z,98245.19
2023-03-27T11:11:01.602Z,98276.22
2023-03-27T11:13:32.263Z,98268.97
2023-03-27T11:16:04.429Z,98273.09
2023-03-27T11:18:34.648Z,98276.47
2023-03-27T11:21:14.142Z,98282.25
2023-03-27T11:23:48.373Z,98279.59
2023-03-27T11:26:18.045Z,98276.31
2023-03-27T11:29:04.176Z,98266.47
2023-03-27T11:31:49.361Z,98261.63
2023-03-27T11:34:36.324Z,98276.94
2023-03-27T11:37:11.176Z,98268.47
2023-03-27T11:39:49.886Z,98254.44
2023-03-27T11:42:22.985Z,98257.06
2023-03-27T11:44:49.545Z,98245.00
2023-03-27T11:47:44.155Z,98250.56
2023-03-27T11:50:24.422Z,98265.97
2023-03-27T11:53:03.815Z,98268.03
2023-03-27T11:55:44.284Z,98258.84
2023-03-27T11:58:20.642Z,98308.31
2023-03-27T12:00:57.032Z,98331.28
2023-03-27T12:03:41.555Z,98346.25
2023-03-27T12:06:31.185Z,98343.09
2023-03-27T12:09:33.253Z,98334.53
2023-03-27T12:12:34.389Z,98334.91
2023-03-27T12:15:28.728Z,98318.59
2023-03-27T12:18:35.260Z,98309.38
2023-03-27T12:21:14.704Z,98311.50
2023-03-27T12:23:51.550Z,98303.13
2023-03-27T12:26:52.042Z,98288.03
2023-03-27T12:29:43.750Z,98288.91
2023-03-27T12:32:24.029Z,98294.59
2023-03-27T12:34:50.873Z,98303.19
2023-03-27T12:37:19.176Z,98308.53
2023-03-27T12:39:50.792Z,98304.34
2023-03-27T12:42:44.033Z,98306.91
2023-03-27T12:45:17.831Z,98300.81
2023-03-27T12:48:16.275Z,98313.91
2023-03-27T12:50:52.116Z,98296.38
2023-03-27T12:53:27.505Z,98301.13
2023-03-27T12:56:20.934Z,98293.75
2023-03-27T12:58:48.161Z,98300.31
2023-03-27T13:01:52.061Z,98290.34
2023-03-27T13:04:25.013Z,98313.06
2023-03-27T13:07:06.129Z,98347.94
2023-03-27T13:09:53.010Z,98357.13
2023-03-27T13:12:42.463Z,98364.19
2023-03-27T13:15:23.607Z,98356.16
2023-03-27T13:18:10.204Z,98372.00
2023-03-27T13:20:48.465Z,98383.06
2023-03-27T13:23:40.040Z,98385.50
2023-03-27T13:26:32.370Z,98383.53
2023-03-27T13:28:58.882Z,98372.03
2023-03-27T13:31:55.737Z,98360.22
2023-03-27T13:34:40.749Z,98364.94
2023-03-27T13:37:07.410Z,98351.75
2023-03-27T13:39:55.628Z,98354.41
2023-03-27T13:42:31.813Z,98345.72
2023-03-27T13:44:59.272Z,98344.81
2023-03-27T13:47:28.409Z,98337.97
2023-03-27T13:50:06.923Z,98339.28
2023-03-27T13:52:51.538Z,98330.00
2023-03-27T13:55:34.654Z,98325.81
2023-03-27T13:58:07.198Z,98332.50
2023-03-27T14:00:47.382Z,98328.75
2023-03-27T14:03:32.796Z,98326.09
2023-03-27T14:06:23.618Z,98322.97
2023-03-27T14:09:08.489Z,98322.41
2023-03-27T14:11:53.658Z,98328.88
2023-03-27T14:14:26.416Z,98329.28
2023-03-27T14:17:08.156Z,98326.16
2023-03-27T14:20:13.162Z,98329.28
2023-03-27T14:22:48.341Z,98321.63
2023-03-27T14:25:19.732Z,98324.16
2023-03-27T14:27:49.734Z,98323.66
2023-03-27T14:30:21.603Z,98300.72
2023-03-27T14:32:51.493Z,98320.59
2023-03-27T14:35:38.510Z,98314.88
2023-03-27T14:38:24.789Z,98297.59
2023-03-27T14:40:55.291Z,98301.47
2023-03-27T14:43:22.066Z,98326.28
2023-03-27T14:45:49.994Z,98309.41
2023-03-27T14:48:37.313Z,98317.94
2023-03-27T14:51:07.373Z,98306.88
2023-03-27T14:53:44.356Z,98329.59
2023-03-27T14:56:45.720Z,98316.53
2023-03-27T14:59:14.020Z,98307.38
2023-03-27T15:01:41.224Z,98303.09
2023-03-27T15:04:07.792Z,98301.44
2023-03-27T15:06:36.676Z,98320.09
2023-03-27T15:09:06.653Z,98313.41
2023-03-27T15:11:38.231Z,98316.22
2023-03-27T15:14:20.896Z,98331.56
2023-03-27T15:16:52.978Z,98342.56
2023-03-27T15:19:20.961Z,98333.13
2023-03-27T15:21:54.545Z,98345.16
2023-03-27T15:24:21.411Z,98340.75
2023-03-27T15:26:48.986Z,98360.56
2023-03-27T15:29:42.552Z,98397.78
2023-03-27T15:32:11.986Z,98422.88
2023-03-27T15:34:45.949Z,98447.16
2023-03-27T15:37:20.154Z,98424.66
2023-03-27T15:40:41.788Z,98422.00
2023-03-27T15:43:08.947Z,98405.03
2023-03-27T15:45:38.111Z,98406.22
2023-03-27T15:48:06.654Z,98410.00
2023-03-27T15:50:33.416Z,98402.38
2023-03-27T15:53:01.509Z,98401.94
2023-03-27T15:55:55.883Z,98401.13
2023-03-27T15:58:27.245Z,98400.94
2023-03-27T16:00:58.184Z,98393.25
2023-03-27T16:03:25.528Z,98393.16
2023-03-27T16:05:56.285Z,98404.81
2023-03-27T16:08:36.492Z,98404.34
2023-03-27T16:11:03.553Z,98397.03
2023-03-27T16:13:35.001Z,98402.22
2023-03-27T16:16:11.618Z,98389.41
2023-03-27T16:18:38.115Z,98396.53
2023-03-27T16:21:09.235Z,98403.03
2023-03-27T16:23:35.740Z,98407.91
2023-03-27T16:26:02.264Z,98415.84
2023-03-27T16:28:29.782Z,98412.59
2023-03-27T16:30:57.795Z,98416.31
2023-03-27T16:33:24.741Z,98426.78
2023-03-27T16:35:51.378Z,98431.03
2023-03-27T16:38:20.087Z,98428.44
2023-03-27T16:40:46.616Z,98423.88
2023-03-27T16:43:13.433Z,98437.91
2023-03-27T16:45:39.966Z,98433.19
2023-03-27T16:48:07.896Z,98436.63
2023-03-27T16:50:34.498Z,98432.94
2023-03-27T16:53:01.237Z,98443.91
2023-03-27T16:55:27.696Z,98439.34
2023-03-27T16:57:55.051Z,98441.50
2023-03-27T17:00:24.266Z,98460.34
2023-03-27T17:02:50.830Z,98470.06
2023-03-27T17:05:17.579Z,98480.78
2023-03-27T17:07:46.468Z,98474.47
2023-03-27T17:10:13.222Z,98462.13
2023-03-27T17:12:39.694Z,98467.91
2023-03-27T17:15:06.805Z,98463.31
2023-03-27T17:17:33.328Z,98475.06
2023-03-27T17:20:00.583Z,98489.00
2023-03-27T17:22:29.725Z,98495.16
2023-03-27T17:24:57.658Z,98496.88
2023-03-27T17:27:25.860Z,98490.28
2023-03-27T17:29:52.390Z,98497.72
2023-03-27T17:32:18.878Z,98499.69
2023-03-27T17:34:45.694Z,98507.91
2023-03-27T17:37:12.517Z,98504.53
2023-03-27T17:39:39.425Z,98515.97
2023-03-27T17:42:06.604Z,98507.91
2023-03-27T17:44:33.101Z,98510.94
2023-03-27T17:47:00.466Z,98504.19
2023-03-27T17:49:29.542Z,98503.91
2023-03-27T17:51:56.142Z,98511.03
2023-03-27T17:54:22.656Z,98515.25
2023-03-27T17:56:49.210Z,98515.41
2023-03-27T17:59:15.761Z,98513.47
2023-03-27T18:01:44.481Z,98507.63
2023-03-27T18:04:12.016Z,98514.16
2023-03-27T18:06:38.505Z,98523.31
2023-03-27T18:09:04.983Z,98510.13
2023-03-27T18:11:32.390Z,98505.00
2023-03-27T18:13:58.928Z,98515.25
2023-03-27T18:16:25.515Z,98511.25
2023-03-27T18:18:54.732Z,98523.38
2023-03-27T18:21:21.853Z,98532.34
2023-03-27T18:23:48.302Z,98536.06
2023-03-27T18:26:15.130Z,98526.66
2023-03-27T18:28:41.613Z,98543.53
2023-03-27T18:31:09.700Z,98550.69
2023-03-27T18:33:36.434Z,98546.72
2023-03-27T18:36:03.200Z,98551.47
2023-03-27T18:38:29.836Z,98556.91
2023-03-27T18:40:56.883Z,98554.31
2023-03-27T18:43:23.741Z,98562.28
2023-03-27T18:46:00.936Z,98563.91
2023-03-27T18:48:28.000Z,98558.59
2023-03-27T18:50:55.007Z,98563.91
2023-03-27T18:53:21.713Z,98568.78
2023-03-27T18:55:49.521Z,98566.13
2023-03-27T18:58:16.207Z,98563.19
2023-03-27T19:00:42.678Z,98574.00
2023-03-27T19:03:15.713Z,98580.78
2023-03-27T19:05:42.170Z,98581.31
2023-03-27T19:08:08.671Z,98581.50
2023-03-27T19:10:35.832Z,98584.56
2023-03-27T19:13:02.879Z,98586.44
2023-03-27T19:15:30.013Z,98590.19
2023-03-27T19:17:56.546Z,98595.53
2023-03-27T19:20:23.079Z,98592.56
2023-03-27T19:22:49.629Z,98590.63
2023-03-27T19:25:16.410Z,98589.69
2023-03-27T19:27:43.105Z,98605.88
2023-03-27T19:30:10.320Z,98593.19
2023-03-27T19:32:37.455Z,98605.03
2023-03-27T19:35:05.035Z,98594.09
2023-03-27T19:37:31.799Z,98607.78
2023-03-27T19:40:01.355Z,98610.03
2023-03-27T19:42:28.554Z,98615.41
2023-03-27T19:44:55.477Z,98614.97
2023-03-27T19:47:21.992Z,98620.97
2023-03-27T19:49:48.872Z,98610.69
2023-03-27T19:52:19.784Z,98603.63
2023-03-27T19:54:46.562Z,98614.44
2023-03-27T19:57:13.209Z,98617.25
2023-03-27T19:59:39.762Z,98627.94
2023-03-27T20:02:06.647Z,98623.06
2023-03-27T20:04:33.426Z,98627.16
2023-03-27T20:07:01.693Z,98628.81
2023-03-27T20:09:28.334Z,98638.19
2023-03-27T20:11:55.041Z,98649.75
2023-03-27T20:14:21.596Z,98630.69
2023-03-27T20:16:48.234Z,98637.31
2023-03-27T20:19:16.620Z,98637.63
2023-03-27T20:21:43.482Z,98640.34
2023-03-27T20:24:11.453Z,98640.88
2023-03-27T20:26:41.799Z,98648.31
2023-03-27T20:29:09.975Z,98647.97
2023-03-27T20:31:36.500Z,98651.31
2023-03-27T20:34:03.140Z,98649.13
2023-03-27T20:36:29.776Z,98653.19
2023-03-27T20:38:56.480Z,98644.91
2023-03-27T20:41:22.978Z,98646.06
2023-03-27T20:43:50.877Z,98639.06
2023-03-27T20:46:17.980Z,98647.84
2023-03-27T20:48:53.861Z,98644.84
2023-03-27T20:51:23.980Z,98635.25
2023-03-27T20:53:55.460Z,98644.63
2023-03-27T20:56:22.263Z,98644.78
2023-03-27T20:58:48.765Z,98642.69
2023-03-27T21:01:19.208Z,98650.44
2023-03-27T21:03:49.696Z,98639.97
2023-03-27T21:06:18.524Z,98642.00
2023-03-27T21:08:45.326Z,98644.75
2023-03-27T21:11:11.834Z,98652.63
2023-03-27T21:13:38.331Z,98645.88
2023-03-27T21:16:05.282Z,98643.50
2023-03-27T21:18:32.086Z,98650.53
2023-03-27T21:20:58.803Z,98654.44
2023-03-27T21:23:25.279Z,98653.03
2023-03-27T21:25:51.816Z,98652.78
2023-03-27T21:28:18.341Z,98646.69
2023-03-27T21:30:46.304Z,98656.59
2023-03-27T21:33:16.037Z,98641.81
2023-03-27T21:35:45.524Z,98648.94
2023-03-27T21:38:12.807Z,98646.78
2023-03-27T21:40:39.465Z,98653.88
2023-03-27T21:43:06.819Z,98636.91
2023-03-27T21:45:33.300Z,98647.91
2023-03-27T21:47:59.772Z,98643.78
2023-03-27T21:50:26.296Z,98641.63
2023-03-27T21:52:52.777Z,98649.28
2023-03-27T21:55:19.262Z,98649.53
2023-03-27T21:57:45.962Z,98654.47
2023-03-27T22:00:14.290Z,98652.09
2023-03-27T22:02:41.355Z,98653.47
2023-03-27T22:05:08.056Z,98661.66
2023-03-27T22:07:34.594Z,98661.13
2023-03-27T22:10:01.575Z,98665.81
2023-03-27T22:12:28.051Z,98665.25
2023-03-27T22:14:54.514Z,98659.78
2023-03-27T22:17:21.119Z,98660.59
2023-03-27T22:19:47.594Z,98673.16
2023-03-27T22:22:14.293Z,98667.09
2023-03-27T22:24:40.808Z,98672.00
2023-03-27T22:27:07.316Z,98678.34
2023-03-27T22:29:33.929Z,98678.00
2023-03-27T22:32:00.412Z,98682.38
2023-03-27T22:34:27.159Z,98679.88
2023-03-27T22:36:53.645Z,98685.31
2023-03-27T22:39:20.225Z,98694.88
2023-03-27T22:41:46.728Z,98685.34
2023-03-27T22:44:13.210Z,98707.25
2023-03-27T22:46:39.732Z,98693.28
2023-03-27T22:49:06.400Z,98701.22
2023-03-27T22:51:32.874Z,98700.97
2023-03-27T22:54:01.447Z,98694.47
2023-03-27T22:56:28.225Z,98706.72
2023-03-27T22:58:54.689Z,98707.06
2023-03-27T23:01:21.189Z,98705.97
2023-03-27T23:03:47.798Z,98712.81
2023-03-27T23:06:18.503Z,98720.81
2023-03-27T23:08:45.029Z,98715.03
2023-03-27T23:11:12.533Z,98722.13
2023-03-27T23:13:39.085Z,98724.88
2023-03-27T23:16:06.103Z,98738.88
2023-03-27T23:18:32.653Z,98727.66
2023-03-27T23:21:03.472Z,98731.75
2023-03-27T23:23:30.378Z,98734.22
2023-03-27T23:25:57.844Z,98728.53
2023-03-27T23:28:24.922Z,98733.19
2023-03-27T23:30:55.590Z,98720.91
2023-03-27T23:33:24.791Z,98730.94
2023-03-27T23:35:52.392Z,98722.47
2023-03-27T23:38:19.136Z,98721.44
2023-03-27T23:40:45.877Z,98728.56
2023-03-27T23:43:12.366Z,98729.31
2023-03-27T23:45:38.831Z,98729.63
2023-03-27T23:48:05.983Z,98734.56
2023-03-27T23:50:32.505Z,98742.25
2023-03-27T23:52:59.030Z,98741.19
2023-03-27T23:55:25.565Z,98738.72
2023-03-27T23:57:52.021Z,98741.72
